KMCB/MCB METAR and TAF weather

Enter ICAO airport designator
Station Type Date Time Source
KMCB METAR 2024/04/17 19:25 UTC NOAA

KMCB 171925Z AUTO 17011KT 10SM BKN026 25/20 A3005 RMK AO2 T02500200


Station Type Date Time Source
KMCB Decoded METAR 2024/04/17 19:25 UTC NOAA

MCCOMB/PIKE COUNTY AIRPORT, MS, United States (KMCB) 31-11N 90-28W 124M
Apr 17, 2024 - 03:25 PM EDT / 2024.04.17 1925 UTC
Wind: from the S (170 degrees) at 13 MPH (11 KT):0
Visibility: 10 mile(s):0
Sky conditions: mostly cloudy
Temperature: 77.0 F (25.0 C)
Dew Point: 68.0 F (20.0 C)
Relative Humidity: 73%
Pressure (altimeter): 30.05 in. Hg (1017 hPa)
ob: KMCB 171925Z AUTO 17011KT 10SM BKN026 25/20 A3005 RMK AO2 T02500200
cycle: 19

Station Type Date Time Source
KMCB TAF 2024/04/17 18:24 UTC NOAA